Time;durP1;ratioP1;P1;durP2;ratioP2;P2;SDS_P1;SDS_P2;PMS_P1;PMS_P2;Temp;Humidity;BMP_temperature;BMP_pressure;BME280_temperature;BME280_humidity;BME280_pressure;Samples;Min_cycle;Max_cycle;Signal;HPM_P1;HPM_P2
2022/09/05 00:02:01;;;;;;;;;;;;;;;18.57;63.73;101874.00;5117412;28;20434;-34
2022/09/05 00:04:45;;;;;;;;;;;;;;;18.54;63.58;101875.34;5117206;28;20012;-34
2022/09/05 00:07:15;;;;;;;;;;;;;;;18.54;63.51;101869.84;5116940;28;19912;-34
2022/09/05 00:09:59;;;;;;;;;;;;;;;18.54;63.55;101867.13;5116651;28;20363;-34
2022/09/05 00:12:24;;;;;;;;;;;;;;;18.52;63.36;101872.03;5116611;28;20394;-34
2022/09/05 00:14:50;;;;;;;;;;;;;;;18.49;63.69;101870.63;5116497;28;19911;-34
2022/09/05 00:17:29;;;;;;;;;;;;;;;18.48;63.69;101879.13;5116763;28;19950;-34
2022/09/05 00:20:06;;;;;;;;;;;;;;;18.44;63.46;101869.75;5116262;28;20013;-34
2022/09/05 00:22:42;;;;;;;;;;;;;;;18.41;64.05;101867.56;5116084;28;19911;-34
2022/09/05 00:25:10;;;;;;;;;;;;;;;18.37;64.05;101860.94;5116869;28;20379;-34
2022/09/05 00:27:45;;;;;;;;;;;;;;;18.32;64.04;101864.44;5116694;28;19912;-34
2022/09/05 00:30:15;;;;;;;;;;;;;;;18.27;63.84;101851.53;5116820;28;20056;-34
2022/09/05 00:32:49;;;;;;;;;;;;;;;18.25;64.29;101852.88;5116441;28;19911;-34
2022/09/05 00:35:21;;;;;;;;;;;;;;;18.28;64.07;101857.84;5115837;28;19918;-34
2022/09/05 00:37:47;;;;;;;;;;;;;;;18.27;64.35;101862.50;5115850;28;19960;-34
2022/09/05 00:40:13;;;;;;;;;;;;;;;18.26;64.04;101857.28;5116038;28;19924;-34
2022/09/05 00:42:38;;;;;;;;;;;;;;;18.26;64.05;101862.75;5115951;28;20432;-34
2022/09/05 00:45:04;;;;;;;;;;;;;;;18.22;64.28;101867.09;5115697;27;19912;-34
2022/09/05 00:47:39;;;;;;;;;;;;;;;18.18;64.47;101853.06;5115977;28;19912;-34
2022/09/05 00:50:13;;;;;;;;;;;;;;;18.16;64.14;101860.72;5115726;28;20016;-34
2022/09/05 00:52:44;;;;;;;;;;;;;;;18.10;64.39;101845.31;5115596;28;19915;-34
2022/09/05 00:55:20;;;;;;;;;;;;;;;18.15;64.28;101853.59;5115934;28;19915;-34
2022/09/05 00:57:57;;;;;;;;;;;;;;;18.16;64.42;101851.69;5116244;28;19976;-35
2022/09/05 01:00:24;;;;;;;;;;;;;;;18.15;64.43;101853.59;5115983;28;20102;-35
2022/09/05 01:03:11;;;;;;;;;;;;;;;18.13;64.81;101858.50;5114973;28;20010;-34
2022/09/05 01:05:54;;;;;;;;;;;;;;;18.08;65.96;101852.97;5115480;28;19955;-35
2022/09/05 01:08:26;;;;;;;;;;;;;;;18.05;65.31;101847.19;5116068;28;19911;-35
2022/09/05 01:10:57;;;;;;;;;;;;;;;18.05;65.02;101852.66;5116153;28;19998;-35
2022/09/05 01:13:34;;;;;;;;;;;;;;;18.03;65.18;101852.91;5115522;28;20390;-35
2022/09/05 01:15:59;;;;;;;;;;;;;;;17.99;65.87;101849.84;5115558;28;20332;-34
2022/09/05 01:18:38;;;;;;;;;;;;;;;17.96;65.64;101855.03;5115623;28;19950;-35
2022/09/05 01:21:22;;;;;;;;;;;;;;;17.94;65.24;101857.19;5115475;27;19999;-35
2022/09/05 01:24:02;;;;;;;;;;;;;;;17.91;65.12;101853.06;5115156;28;19950;-35
2022/09/05 01:26:38;;;;;;;;;;;;;;;17.88;65.04;101853.56;5114796;28;19912;-35
2022/09/05 01:29:20;;;;;;;;;;;;;;;17.87;65.32;101848.34;5114567;28;20229;-35
2022/09/05 01:31:58;;;;;;;;;;;;;;;17.85;65.45;101851.31;5114985;28;19916;-35
2022/09/05 01:34:31;;;;;;;;;;;;;;;17.85;65.82;101854.06;5115281;28;19912;-35
2022/09/05 01:36:56;;;;;;;;;;;;;;;17.84;65.15;101854.31;5115034;27;19953;-35
2022/09/05 01:39:44;;;;;;;;;;;;;;;17.81;65.72;101850.19;5115199;28;19922;-35
2022/09/05 01:42:29;;;;;;;;;;;;;;;17.83;65.51;101849.94;5104431;28;19918;-35
2022/09/05 01:44:54;;;;;;;;;;;;;;;17.81;65.30;101847.44;5114785;28;19996;-35
2022/09/05 01:47:38;;;;;;;;;;;;;;;17.80;65.51;101853.19;5114812;28;20369;-35
2022/09/05 01:50:12;;;;;;;;;;;;;;;17.66;65.36;101833.53;5114411;28;19911;-35
2022/09/05 01:52:37;;;;;;;;;;;;;;;17.69;65.54;101846.72;5115181;28;19956;-35
2022/09/05 01:55:05;;;;;;;;;;;;;;;17.67;65.67;101851.63;5114800;28;20006;-35
2022/09/05 01:57:43;;;;;;;;;;;;;;;17.67;65.58;101852.47;5114824;28;19919;-35
2022/09/05 02:00:08;;;;;;;;;;;;;;;17.67;65.55;101848.91;5115174;28;19973;-35
2022/09/05 02:02:54;;;;;;;;;;;;;;;17.65;65.36;101851.88;5115578;28;19916;-35
2022/09/05 02:05:38;;;;;;;;;;;;;;;17.62;65.98;101851.56;5114185;28;20294;-35
2022/09/05 02:08:22;;;;;;;;;;;;;;;17.58;65.70;101853.97;5114186;28;20038;-35
2022/09/05 02:10:50;;;;;;;;;;;;;;;17.56;65.72;101853.38;5114779;28;19912;-35
2022/09/05 02:13:27;;;;;;;;;;;;;;;17.55;66.02;101849.00;5113898;28;20042;-35
2022/09/05 02:16:04;;;;;;;;;;;;;;;17.55;66.18;101843.53;5114511;28;19994;-35
2022/09/05 02:18:44;;;;;;;;;;;;;;;17.55;66.17;101853.66;5114882;28;19918;-35
2022/09/05 02:21:30;;;;;;;;;;;;;;;17.53;66.31;101862.13;5114457;28;20333;-35
2022/09/05 02:24:07;;;;;;;;;;;;;;;17.48;66.17;101851.94;5113648;28;19962;-35
2022/09/05 02:26:38;;;;;;;;;;;;;;;17.44;66.30;101842.56;5114986;28;19955;-35
2022/09/05 02:29:12;;;;;;;;;;;;;;;17.41;66.27;101851.28;5113816;28;19911;-35
2022/09/05 02:31:37;;;;;;;;;;;;;;;17.39;66.68;101850.72;5113696;28;20421;-35
2022/09/05 02:34:10;;;;;;;;;;;;;;;17.36;66.68;101859.41;5113913;28;19912;-35
2022/09/05 02:36:43;;;;;;;;;;;;;;;17.34;66.37;101864.31;5114490;28;20002;-35
2022/09/05 02:39:18;;;;;;;;;;;;;;;17.30;66.21;101867.78;5113866;28;20014;-35
2022/09/05 02:41:43;;;;;;;;;;;;;;;17.27;66.40;101871.00;5113906;28;19912;-35
2022/09/05 02:44:35;;;;;;;;;;;;;;;17.21;67.30;101861.91;5114468;28;19912;-35
2022/09/05 02:47:21;;;;;;;;;;;;;;;17.15;66.73;101865.66;5015036;28;19924;-35
2022/09/05 02:49:53;;;;;;;;;;;;;;;17.12;67.13;101869.72;5031649;28;19920;-35
2022/09/05 02:52:19;;;;;;;;;;;;;;;17.11;67.18;101859.03;5031241;28;19917;-35
2022/09/05 02:54:47;;;;;;;;;;;;;;;17.08;67.37;101860.38;5031161;28;20024;-35
2022/09/05 02:57:21;;;;;;;;;;;;;;;17.07;67.55;101869.63;5031032;28;19920;-35
2022/09/05 02:59:46;;;;;;;;;;;;;;;17.07;66.95;101861.44;5030781;28;20007;-35
2022/09/05 03:02:17;;;;;;;;;;;;;;;17.07;67.10;101866.06;5030643;28;20522;-35
2022/09/05 03:04:45;;;;;;;;;;;;;;;17.07;67.32;101863.34;5031087;28;20027;-35
2022/09/05 03:07:18;;;;;;;;;;;;;;;17.03;67.59;101863.03;5030903;28;19913;-35
2022/09/05 03:09:43;;;;;;;;;;;;;;;17.02;67.59;101863.25;5031203;28;19913;-35
2022/09/05 03:12:27;;;;;;;;;;;;;;;17.00;67.56;101860.78;5030902;28;20473;-35
2022/09/05 03:15:13;;;;;;;;;;;;;;;16.97;67.72;101861.28;5030734;28;19913;-35
2022/09/05 03:17:52;;;;;;;;;;;;;;;16.94;67.63;101861.78;5030830;28;19917;-35
2022/09/05 03:20:35;;;;;;;;;;;;;;;16.92;67.91;101867.47;5030947;28;19920;-35
2022/09/05 03:23:12;;;;;;;;;;;;;;;16.89;67.84;101861.72;5045758;28;19912;-35
2022/09/05 03:25:49;;;;;;;;;;;;;;;16.83;67.42;101865.41;5115914;28;20220;-35
2022/09/05 03:28:33;;;;;;;;;;;;;;;16.82;68.06;101867.31;5117212;28;19918;-35
2022/09/05 03:31:01;;;;;;;;;;;;;;;16.81;67.86;101860.19;5117333;28;19916;-35
2022/09/05 03:33:32;;;;;;;;;;;;;;;16.81;68.00;101870.31;5118036;28;19962;-35
2022/09/05 03:36:16;;;;;;;;;;;;;;;16.78;67.59;101865.31;5117232;28;19919;-35
2022/09/05 03:39:01;;;;;;;;;;;;;;;16.79;68.11;101864.25;5117711;28;19918;-35
2022/09/05 03:41:38;;;;;;;;;;;;;;;16.76;68.22;101867.50;5117664;28;19912;-35
2022/09/05 03:44:18;;;;;;;;;;;;;;;16.76;67.77;101873.78;5116889;28;19912;-35
2022/09/05 03:46:44;;;;;;;;;;;;;;;16.77;68.11;101866.41;5117074;28;19956;-35
2022/09/05 03:49:19;;;;;;;;;;;;;;;16.73;68.37;101864.16;5117031;28;19912;-34
2022/09/05 03:51:47;;;;;;;;;;;;;;;16.69;69.21;101857.53;5117847;28;19961;-35
2022/09/05 03:54:31;;;;;;;;;;;;;;;16.62;73.60;101862.31;5117795;28;19911;-35
2022/09/05 03:57:15;;;;;;;;;;;;;;;16.52;73.50;101858.56;5116854;28;19912;-35
2022/09/05 04:00:01;;;;;;;;;;;;;;;16.45;71.65;101859.56;5117088;28;19911;-35
2022/09/05 04:02:28;;;;;;;;;;;;;;;16.44;71.34;101865.25;5117181;28;19916;-35
2022/09/05 04:05:09;;;;;;;;;;;;;;;16.43;70.60;101869.06;5117033;28;19911;-35
2022/09/05 04:07:42;;;;;;;;;;;;;;;16.41;70.06;101863.03;5116612;28;20128;-34
2022/09/05 04:10:07;;;;;;;;;;;;;;;16.41;70.20;101863.03;5116564;28;19919;-35
2022/09/05 04:12:36;;;;;;;;;;;;;;;16.35;71.89;101858.56;5117111;28;19912;-35
2022/09/05 04:15:21;;;;;;;;;;;;;;;16.36;71.00;101873.84;5116212;28;19912;-35
2022/09/05 04:17:51;;;;;;;;;;;;;;;16.34;70.92;101868.63;5116757;28;19953;-35
2022/09/05 04:20:26;;;;;;;;;;;;;;;16.32;70.37;101870.78;5116495;28;19954;-35
2022/09/05 04:23:11;;;;;;;;;;;;;;;16.34;70.15;101871.34;5116619;28;20377;-34
2022/09/05 04:25:36;;;;;;;;;;;;;;;16.34;70.28;101870.53;5116093;28;19919;-35
2022/09/05 04:28:11;;;;;;;;;;;;;;;16.32;70.30;101873.50;5116531;28;19911;-35
2022/09/05 04:30:41;;;;;;;;;;;;;;;16.33;70.19;101875.16;5116239;28;19919;-35
2022/09/05 04:33:06;;;;;;;;;;;;;;;16.33;70.16;101868.88;5116472;28;19911;-35
2022/09/05 04:35:36;;;;;;;;;;;;;;;16.32;71.12;101870.78;5115884;28;19911;-35
2022/09/05 04:38:10;;;;;;;;;;;;;;;16.31;72.84;101865.56;5116918;28;19911;-35
2022/09/05 04:40:37;;;;;;;;;;;;;;;16.26;71.89;101870.94;5116179;28;20014;-35
2022/09/05 04:43:05;;;;;;;;;;;;;;;16.25;71.32;101872.84;5116348;28;19912;-35
2022/09/05 04:45:35;;;;;;;;;;;;;;;16.25;70.57;101871.97;5115943;28;19912;-35
2022/09/05 04:48:01;;;;;;;;;;;;;;;16.24;71.00;101871.16;5116567;28;19912;-35
2022/09/05 04:50:28;;;;;;;;;;;;;;;16.22;70.53;101873.31;5115574;28;20035;-35
2022/09/05 04:53:08;;;;;;;;;;;;;;;16.21;70.59;101875.22;5116147;28;19959;-35
2022/09/05 04:55:45;;;;;;;;;;;;;;;16.20;70.60;101884.50;5115604;28;20332;-35
2022/09/05 04:58:32;;;;;;;;;;;;;;;16.17;70.68;101876.78;5116415;28;19915;-35
2022/09/05 05:01:02;;;;;;;;;;;;;;;16.15;70.57;101875.34;5115538;28;19923;-35
2022/09/05 05:03:29;;;;;;;;;;;;;;;16.14;71.04;101882.72;5115949;28;19912;-35
2022/09/05 05:06:01;;;;;;;;;;;;;;;16.12;71.56;101882.13;5115760;28;20006;-35
2022/09/05 05:08:30;;;;;;;;;;;;;;;16.08;70.84;101878.22;5115768;28;19911;-35
2022/09/05 05:11:02;;;;;;;;;;;;;;;16.10;71.23;101886.16;5116477;28;19911;-35
2022/09/05 05:13:34;;;;;;;;;;;;;;;16.10;71.07;101884.25;5116514;28;20267;-34
2022/09/05 05:16:04;;;;;;;;;;;;;;;16.05;71.47;101872.41;5115636;28;19912;-35
2022/09/05 05:18:34;;;;;;;;;;;;;;;16.10;71.20;101888.88;5116194;28;19911;-35
2022/09/05 05:21:02;;;;;;;;;;;;;;;16.07;71.81;101879.31;5115588;28;19911;-35
2022/09/05 05:23:33;;;;;;;;;;;;;;;16.17;71.77;101909.53;5115901;28;19911;-35
2022/09/05 05:26:01;;;;;;;;;;;;;;;16.20;74.63;101900.00;5115543;28;19927;-35
2022/09/05 05:28:35;;;;;;;;;;;;;;;16.18;73.65;101894.81;5115736;28;20360;-35
2022/09/05 05:31:09;;;;;;;;;;;;;;;16.21;72.14;101898.97;5115012;28;19912;-35
2022/09/05 05:33:36;;;;;;;;;;;;;;;16.26;71.72;101898.22;5115287;28;20328;-35
2022/09/05 05:36:05;;;;;;;;;;;;;;;16.33;71.43;101898.91;5115207;28;19912;-35
2022/09/05 05:38:37;;;;;;;;;;;;;;;16.43;71.14;101894.47;5115769;28;19915;-35
2022/09/05 05:41:38;;;;;;;;;;;;;;;16.50;71.20;101899.78;5115208;28;19911;-35
2022/09/05 05:44:10;;;;;;;;;;;;;;;16.51;71.98;101897.88;5032257;28;19919;-35
2022/09/05 05:46:37;;;;;;;;;;;;;;;16.55;71.79;101893.59;5031973;28;19913;-35
2022/09/05 05:49:13;;;;;;;;;;;;;;;16.60;71.24;101897.25;5031081;28;19913;-35
2022/09/05 05:51:38;;;;;;;;;;;;;;;16.68;71.39;101894.09;5032491;28;19917;-35
2022/09/05 05:54:06;;;;;;;;;;;;;;;16.78;71.38;101895.38;5031636;28;20384;-35
2022/09/05 05:56:47;;;;;;;;;;;;;;;16.87;73.04;101899.34;5032050;28;19958;-35
2022/09/05 05:59:15;;;;;;;;;;;;;;;16.95;71.62;101905.25;5031698;28;19913;-35
2022/09/05 06:01:43;;;;;;;;;;;;;;;17.05;71.02;101909.22;5032130;28;19956;-35
2022/09/05 06:04:14;;;;;;;;;;;;;;;17.14;71.34;101905.00;5031549;28;20420;-35
2022/09/05 06:06:58;;;;;;;;;;;;;;;17.23;70.45;101912.53;5031397;28;19920;-35
2022/09/05 06:09:23;;;;;;;;;;;;;;;17.30;70.68;101911.53;5031451;28;19913;-35
2022/09/05 06:12:02;;;;;;;;;;;;;;;17.35;70.68;101914.34;5031603;28;19913;-35
2022/09/05 06:14:47;;;;;;;;;;;;;;;17.40;71.74;101908.94;5031325;28;19917;-35
2022/09/05 06:17:24;;;;;;;;;;;;;;;17.46;71.09;101916.13;5045419;28;19919;-35
2022/09/05 06:20:00;;;;;;;;;;;;;;;17.49;70.73;101915.66;5114095;28;19972;-35
2022/09/05 06:22:28;;;;;;;;;;;;;;;17.57;70.86;101922.59;5114117;28;20371;-35
2022/09/05 06:25:25;;;;;;;;;;;;;;;17.62;70.66;101920.78;5114148;28;19922;-35
2022/09/05 06:28:05;;;;;;;;;;;;;;;17.69;70.44;101924.13;5114308;28;19919;-35
2022/09/05 06:30:38;;;;;;;;;;;;;;;17.75;70.67;101925.06;5114019;28;19918;-35
2022/09/05 06:33:19;;;;;;;;;;;;;;;17.80;70.29;101918.84;5113919;28;19918;-35
2022/09/05 06:35:45;;;;;;;;;;;;;;;17.87;70.85;101922.22;5114078;28;19961;-35
2022/09/05 06:38:20;;;;;;;;;;;;;;;17.97;70.95;101919.63;5113435;28;20228;-35
2022/09/05 06:40:49;;;;;;;;;;;;;;;18.07;70.41;101921.66;5112647;28;19912;-35
2022/09/05 06:43:32;;;;;;;;;;;;;;;18.13;70.45;101920.63;5114814;28;20248;-35
2022/09/05 06:46:16;;;;;;;;;;;;;;;18.23;71.17;101921.56;5113688;28;19916;-35
2022/09/05 06:48:55;;;;;;;;;;;;;;;18.32;70.71;101915.66;5114373;28;19964;-35
2022/09/05 06:51:29;;;;;;;;;;;;;;;18.45;70.53;101920.75;5113873;28;19930;-35
2022/09/05 06:54:03;;;;;;;;;;;;;;;18.57;70.31;101918.66;5114568;28;19911;-35
2022/09/05 06:56:46;;;;;;;;;;;;;;;18.69;69.89;101913.88;5113760;28;19916;-35
2022/09/05 06:59:26;;;;;;;;;;;;;;;18.82;69.71;101917.28;5114956;28;19911;-35
2022/09/05 07:01:55;;;;;;;;;;;;;;;18.91;69.69;101913.81;5118550;28;20309;-35
2022/09/05 07:04:20;;;;;;;;;;;;;;;18.97;69.55;101910.00;5118323;28;20294;-35
2022/09/05 07:07:05;;;;;;;;;;;;;;;19.08;69.62;101910.94;5118161;28;19969;-35
2022/09/05 07:09:44;;;;;;;;;;;;;;;19.17;68.85;101909.34;5118681;28;19954;-35
2022/09/05 07:12:27;;;;;;;;;;;;;;;19.27;68.72;101914.91;5118065;28;20379;-35
2022/09/05 07:15:01;;;;;;;;;;;;;;;19.39;67.93;101913.91;5117835;28;20295;-35
2022/09/05 07:17:44;;;;;;;;;;;;;;;19.48;67.23;101912.31;5118388;28;19912;-35
2022/09/05 07:20:18;;;;;;;;;;;;;;;19.55;67.47;101921.13;5117988;27;19912;-35
2022/09/05 07:22:49;;;;;;;;;;;;;;;19.63;67.49;101920.66;5117632;28;19912;-35
2022/09/05 07:25:20;;;;;;;;;;;;;;;19.71;67.02;101922.88;5117823;27;19934;-35
2022/09/05 07:27:50;;;;;;;;;;;;;;;19.79;66.28;101919.66;5118302;28;20340;-36
2022/09/05 07:30:17;;;;;;;;;;;;;;;19.86;66.42;101922.13;5117775;28;19919;-34
2022/09/05 07:32:43;;;;;;;;;;;;;;;19.93;66.41;101916.44;5118142;28;20350;-34
2022/09/05 07:35:17;;;;;;;;;;;;;;;19.99;65.92;101929.06;5117834;27;19919;-34
2022/09/05 07:37:44;;;;;;;;;;;;;;;20.08;65.47;101923.91;5117728;28;19956;-34
2022/09/05 07:40:18;;;;;;;;;;;;;;;20.14;65.69;101925.56;5116832;28;20302;-34
2022/09/05 07:43:04;;;;;;;;;;;;;;;20.21;65.70;101934.41;5117799;28;19959;-34
2022/09/05 07:45:29;;;;;;;;;;;;;;;20.28;65.70;101935.78;5116870;28;19924;-34
2022/09/05 07:47:57;;;;;;;;;;;;;;;20.35;65.41;101941.03;5117618;28;19911;-35
2022/09/05 07:50:24;;;;;;;;;;;;;;;20.41;65.45;101950.13;5117525;28;20373;-34
2022/09/05 07:52:49;;;;;;;;;;;;;;;20.48;64.96;101939.72;5117238;27;19964;-34
2022/09/05 07:55:24;;;;;;;;;;;;;;;20.54;65.32;101941.38;5116669;28;19912;-35
2022/09/05 07:57:51;;;;;;;;;;;;;;;20.62;65.27;101942.78;5117737;28;19912;-34
2022/09/05 08:00:18;;;;;;;;;;;;;;;20.71;65.11;101938.38;5117169;28;19972;-34
2022/09/05 08:02:44;;;;;;;;;;;;;;;20.80;65.46;101945.00;5117554;28;19916;-34
2022/09/05 08:05:12;;;;;;;;;;;;;;;20.90;65.18;101946.94;5116772;28;20275;-34
2022/09/05 08:07:38;;;;;;;;;;;;;;;21.00;64.70;101947.75;5116912;28;19912;-35
2022/09/05 08:10:06;;;;;;;;;;;;;;;21.12;64.51;101947.47;5116780;28;19920;-34
2022/09/05 08:12:37;;;;;;;;;;;;;;;21.24;63.93;101941.72;5116366;28;19911;-34
2022/09/05 08:15:05;;;;;;;;;;;;;;;21.35;63.66;101937.88;5116985;28;19920;-35
2022/09/05 08:17:33;;;;;;;;;;;;;;;21.51;62.77;101941.44;5116344;28;19911;-34
2022/09/05 08:20:10;;;;;;;;;;;;;;;21.65;62.66;101931.50;5117127;28;20339;-35
2022/09/05 08:22:43;;;;;;;;;;;;;;;21.79;60.80;101935.31;5117370;28;19957;-34
2022/09/05 08:25:08;;;;;;;;;;;;;;;21.93;61.29;101929.22;5116532;28;19922;-35
2022/09/05 08:27:54;;;;;;;;;;;;;;;22.05;61.33;101935.22;5116656;28;19911;-34
2022/09/05 08:30:19;;;;;;;;;;;;;;;22.18;59.68;101931.06;5116254;28;19919;-35
2022/09/05 08:32:45;;;;;;;;;;;;;;;22.29;60.00;101941.75;5116910;28;19912;-34
2022/09/05 08:35:23;;;;;;;;;;;;;;;22.41;59.72;101935.09;5116038;28;19950;-35
2022/09/05 08:37:50;;;;;;;;;;;;;;;22.53;59.08;101944.63;5116626;28;19916;-35
2022/09/05 08:40:34;;;;;;;;;;;;;;;22.69;56.79;101942.59;5115900;28;20363;-34
2022/09/05 08:42:59;;;;;;;;;;;;;;;22.86;56.88;101942.22;5116439;28;20002;-35
2022/09/05 08:45:37;;;;;;;;;;;;;;;22.97;57.25;101941.06;5116046;28;20390;-35
2022/09/05 08:48:02;;;;;;;;;;;;;;;23.07;57.50;101937.38;5116770;28;19950;-34
2022/09/05 08:50:33;;;;;;;;;;;;;;;23.20;56.19;101933.16;5115665;28;20339;-35
2022/09/05 08:53:04;;;;;;;;;;;;;;;23.32;55.42;101933.56;5116501;28;19937;-34
2022/09/05 08:55:44;;;;;;;;;;;;;;;23.45;54.77;101923.81;5116291;28;19998;-34
2022/09/05 08:58:18;;;;;;;;;;;;;;;23.58;54.70;101925.88;5115812;28;19912;-34
2022/09/05 09:00:54;;;;;;;;;;;;;;;23.73;52.31;101917.47;5115275;28;19950;-34
2022/09/05 09:03:28;;;;;;;;;;;;;;;23.87;52.09;101923.91;5116472;28;19911;-34
2022/09/05 09:05:54;;;;;;;;;;;;;;;24.05;53.81;101907.66;5115816;28;19912;-34
2022/09/05 09:08:37;;;;;;;;;;;;;;;24.18;53.19;101909.69;5115287;28;20325;-34
2022/09/05 09:11:10;;;;;;;;;;;;;;;24.33;51.40;101912.25;5115283;28;20368;-34
2022/09/05 09:13:51;;;;;;;;;;;;;;;24.48;52.40;101911.25;5115396;28;19923;-34
2022/09/05 09:16:34;;;;;;;;;;;;;;;24.65;50.26;101907.97;5115591;28;20010;-34
2022/09/05 09:18:59;;;;;;;;;;;;;;;24.80;52.13;101902.19;5115950;28;19912;-34
2022/09/05 09:21:34;;;;;;;;;;;;;;;24.87;51.15;101901.78;5115318;28;20286;-34
2022/09/05 09:24:17;;;;;;;;;;;;;;;24.97;51.55;101904.38;5113107;28;20394;-34
2022/09/05 09:27:01;;;;;;;;;;;;;;;25.09;50.13;101903.94;5115280;28;19911;-34
2022/09/05 09:29:27;;;;;;;;;;;;;;;25.19;49.49;101903.75;5115295;28;20371;-34
2022/09/05 09:31:53;;;;;;;;;;;;;;;25.30;48.62;101902.44;5115180;28;19935;-34
2022/09/05 09:34:24;;;;;;;;;;;;;;;25.43;47.56;101890.56;5115969;28;20323;-34
2022/09/05 09:37:04;;;;;;;;;;;;;;;25.57;47.40;101892.50;5115133;28;19917;-34
2022/09/05 09:39:29;;;;;;;;;;;;;;;25.72;46.40;101896.91;5116157;28;20006;-34
2022/09/05 09:42:05;;;;;;;;;;;;;;;25.84;45.62;101889.78;5115794;28;20404;-34
2022/09/05 09:44:51;;;;;;;;;;;;;;;26.00;48.13;101887.50;5115555;27;19995;-34
2022/09/05 09:47:21;;;;;;;;;;;;;;;26.14;44.14;101881.94;5115192;28;19912;-34
2022/09/05 09:49:48;;;;;;;;;;;;;;;26.27;43.76;101881.09;5114568;28;20306;-34
2022/09/05 09:52:18;;;;;;;;;;;;;;;26.37;42.52;101875.31;5114580;28;19979;-39
2022/09/05 09:54:49;;;;;;;;;;;;;;;26.49;43.62;101872.00;5114518;28;20327;-35
2022/09/05 09:57:24;;;;;;;;;;;;;;;26.61;43.95;101877.81;5115208;28;19916;-34
2022/09/05 10:00:10;;;;;;;;;;;;;;;26.72;41.35;101886.69;5115098;28;20006;-34
2022/09/05 10:02:35;;;;;;;;;;;;;;;26.83;40.54;101876.16;5115831;28;20009;-34
2022/09/05 10:05:00;;;;;;;;;;;;;;;26.92;40.78;101880.63;5114279;28;20016;-35
2022/09/05 10:07:43;;;;;;;;;;;;;;;27.06;41.26;101874.19;5115023;28;20057;-35
2022/09/05 10:10:09;;;;;;;;;;;;;;;27.16;38.24;101874.75;5113485;28;20057;-35
2022/09/05 10:12:53;;;;;;;;;;;;;;;27.23;39.75;101871.53;5115076;28;20002;-35
2022/09/05 10:15:29;;;;;;;;;;;;;;;27.30;38.11;101865.53;5114438;28;19920;-35
2022/09/05 10:17:57;;;;;;;;;;;;;;;27.34;39.50;101869.31;5115029;28;19911;-35
2022/09/05 10:20:36;;;;;;;;;;;;;;;27.45;37.98;101848.44;5114593;28;19964;-35
2022/09/05 10:23:20;;;;;;;;;;;;;;;27.57;37.11;101850.59;5114304;28;19931;-35
2022/09/05 10:26:04;;;;;;;;;;;;;;;27.71;38.45;101851.31;5114315;28;19912;-35
2022/09/05 10:28:30;;;;;;;;;;;;;;;27.85;34.81;101843.66;5114637;28;20347;-35
2022/09/05 10:31:01;;;;;;;;;;;;;;;27.95;35.47;101854.47;5114316;28;19919;-35
2022/09/05 10:33:45;;;;;;;;;;;;;;;28.04;35.52;101856.47;5114171;28;19912;-35
2022/09/05 10:36:21;;;;;;;;;;;;;;;28.12;35.60;101844.53;5114491;28;19999;-35
2022/09/05 10:38:49;;;;;;;;;;;;;;;28.17;35.49;101838.81;5114049;28;19957;-35
2022/09/05 10:41:18;;;;;;;;;;;;;;;28.29;35.99;101843.72;5113711;28;20396;-35
2022/09/05 10:43:43;;;;;;;;;;;;;;;28.36;35.03;101839.34;5114793;28;19958;-35
2022/09/05 10:46:17;;;;;;;;;;;;;;;28.44;36.09;101834.91;5113611;28;20399;-35
2022/09/05 10:48:50;;;;;;;;;;;;;;;28.51;35.93;101835.22;5114277;28;20340;-35
2022/09/05 10:51:17;;;;;;;;;;;;;;;28.62;37.08;101841.28;5113990;28;19911;-35
2022/09/05 10:54:03;;;;;;;;;;;;;;;28.66;33.70;101837.50;5114153;28;20392;-35
2022/09/05 10:56:33;;;;;;;;;;;;;;;28.69;34.40;101836.00;5113019;28;20026;-34
2022/09/05 10:59:03;;;;;;;;;;;;;;;28.79;35.62;101834.84;5114508;28;19911;-34
2022/09/05 11:01:49;;;;;;;;;;;;;;;28.86;34.78;101826.81;5114693;28;20240;-35
2022/09/05 11:04:41;;;;;;;;;;;;;;;28.96;32.96;101827.31;5114121;28;20388;-34
2022/09/05 11:07:11;;;;;;;;;;;;;;;29.10;34.60;101817.94;5113814;28;19912;-35
2022/09/05 11:09:40;;;;;;;;;;;;;;;29.23;35.35;101825.22;5114398;28;19923;-35
2022/09/05 11:12:18;;;;;;;;;;;;;;;29.34;33.88;101818.16;5113481;28;19911;-34
2022/09/05 11:14:43;;;;;;;;;;;;;;;29.43;34.53;101816.16;5114098;28;19912;-35
2022/09/05 11:17:34;;;;;;;;;;;;;;;29.48;32.54;101815.13;5113544;28;20377;-35
2022/09/05 11:20:06;;;;;;;;;;;;;;;29.56;33.64;101816.25;5030953;28;19913;-35
2022/09/05 11:22:36;;;;;;;;;;;;;;;29.62;34.51;101812.94;5030841;28;19967;-35
2022/09/05 11:25:03;;;;;;;;;;;;;;;29.62;33.39;101812.13;5030963;28;20296;-34
2022/09/05 11:27:38;;;;;;;;;;;;;;;29.65;32.91;101805.88;5014339;28;19913;-35
2022/09/05 11:30:05;;;;;;;;;;;;;;;29.73;33.77;101796.66;5031009;28;19913;-35
2022/09/05 11:33:06;;;;;;;;;;;;;;;29.85;32.98;101807.06;5030832;28;19913;-35
2022/09/05 11:35:33;;;;;;;;;;;;;;;29.99;34.14;101805.63;4972514;28;19921;-35
2022/09/05 11:38:18;;;;;;;;;;;;;;;30.10;32.39;101806.03;4972160;28;19914;-35
2022/09/05 11:40:52;;;;;;;;;;;;;;;30.08;31.82;101799.16;4972511;28;19918;-35
2022/09/05 11:43:41;;;;;;;;;;;;;;;30.15;32.13;101796.66;4972536;28;20365;-35
2022/09/05 11:46:13;;;;;;;;;;;;;;;30.18;31.55;101804.38;4972952;28;19931;-35
2022/09/05 11:48:44;;;;;;;;;;;;;;;30.17;31.55;101803.56;4975774;28;20428;-35
2022/09/05 11:51:09;;;;;;;;;;;;;;;30.25;32.22;101804.63;4975691;28;19937;-35
2022/09/05 11:53:55;;;;;;;;;;;;;;;30.21;29.91;101801.72;4975524;28;20307;-35
2022/09/05 11:56:39;;;;;;;;;;;;;;;30.16;32.07;101801.09;5007693;28;20012;-35
2022/09/05 11:59:21;;;;;;;;;;;;;;;30.20;29.86;101793.66;5074609;28;19919;-35
2022/09/05 12:02:05;;;;;;;;;;;;;;;30.27;31.05;101805.09;5074131;28;20350;-35
2022/09/05 12:04:33;;;;;;;;;;;;;;;30.39;32.14;101801.53;5074199;28;20352;-35
2022/09/05 12:07:10;;;;;;;;;;;;;;;30.17;29.95;101794.38;5074096;28;19924;-35
2022/09/05 12:09:45;;;;;;;;;;;;;;;30.19;31.09;101792.03;5097010;28;19921;-35
2022/09/05 12:12:23;;;;;;;;;;;;;;;30.14;29.68;101783.88;5117160;27;19916;-35
2022/09/05 12:14:51;;;;;;;;;;;;;;;30.22;30.83;101791.38;5116501;28;19923;-35
2022/09/05 12:17:19;;;;;;;;;;;;;;;30.25;29.88;101782.31;5117072;28;20015;-35
2022/09/05 12:19:53;;;;;;;;;;;;;;;30.30;30.58;101782.09;5116726;28;19919;-35
2022/09/05 12:22:25;;;;;;;;;;;;;;;30.38;30.44;101767.25;5117217;28;19912;-34
2022/09/05 12:25:17;;;;;;;;;;;;;;;30.42;30.87;101775.75;5116656;28;19957;-35
2022/09/05 12:27:46;;;;;;;;;;;;;;;30.57;31.07;101775.09;5117086;27;19911;-34
2022/09/05 12:30:13;;;;;;;;;;;;;;;30.71;30.59;101772.03;5116686;28;19911;-34
2022/09/05 12:33:06;;;;;;;;;;;;;;;30.85;30.50;101768.91;5117296;28;19915;-34
2022/09/05 12:35:44;;;;;;;;;;;;;;;30.83;31.31;101760.88;5033939;28;19960;-34
2022/09/05 12:38:20;;;;;;;;;;;;;;;30.88;31.21;101762.63;5033767;28;19913;-34
2022/09/05 12:41:11;;;;;;;;;;;;;;;30.98;30.33;101760.19;5017448;28;19919;-34
2022/09/05 12:43:44;;;;;;;;;;;;;;;31.13;31.13;101755.06;5030277;28;19913;-34
2022/09/05 12:46:32;;;;;;;;;;;;;;;31.14;30.64;101762.31;5033866;28;19920;-34
2022/09/05 12:49:07;;;;;;;;;;;;;;;31.17;30.31;101750.41;4975023;28;19965;-34
2022/09/05 12:51:36;;;;;;;;;;;;;;;31.27;30.21;101753.56;4974582;28;19914;-35
2022/09/05 12:54:21;;;;;;;;;;;;;;;31.34;29.69;101758.59;4974575;28;20012;-35
2022/09/05 12:56:46;;;;;;;;;;;;;;;31.36;28.74;101747.06;4974167;28;19933;-35
2022/09/05 12:59:15;;;;;;;;;;;;;;;31.33;28.09;101756.97;4974689;28;19914;-35
2022/09/05 13:01:42;;;;;;;;;;;;;;;31.19;28.55;101746.13;4974161;28;19957;-35
2022/09/05 13:04:17;;;;;;;;;;;;;;;31.14;27.82;101749.16;4974816;28;19914;-35
2022/09/05 13:06:45;;;;;;;;;;;;;;;30.81;27.71;101746.44;4974310;28;19938;-35
2022/09/05 13:09:18;;;;;;;;;;;;;;;30.96;29.35;101742.97;4974373;28;20493;-35
2022/09/05 13:12:08;;;;;;;;;;;;;;;31.16;29.05;101738.44;4984659;28;19928;-35